createdAt,value
2022-12-23T00:01:04.025Z,3.46
2022-12-23T00:03:35.044Z,3.79
2022-12-23T00:06:11.470Z,3.84
2022-12-23T00:08:41.688Z,3.99
2022-12-23T00:11:15.522Z,4.05
2022-12-23T00:14:04.477Z,3.85
2022-12-23T00:16:37.541Z,3.77
2022-12-23T00:19:08.524Z,4.22
2022-12-23T00:21:38.631Z,3.43
2022-12-23T00:24:09.023Z,3.87
2022-12-23T00:26:39.347Z,3.68
2022-12-23T00:29:10.794Z,3.94
2022-12-23T00:31:41.457Z,3.46
2022-12-23T00:34:13.124Z,3.70
2022-12-23T00:36:43.056Z,3.54
2022-12-23T00:39:31.531Z,3.92
2022-12-23T00:42:19.192Z,3.65
2022-12-23T00:44:51.258Z,3.98
2022-12-23T00:47:38.714Z,3.87
2022-12-23T00:50:11.345Z,3.97
2022-12-23T00:52:42.356Z,4.18
2022-12-23T00:55:12.736Z,3.76
2022-12-23T00:57:43.865Z,4.10
2022-12-23T01:00:16.914Z,4.13
2022-12-23T01:03:04.501Z,4.20
2022-12-23T01:05:40.714Z,3.86
2022-12-23T01:08:12.837Z,3.93
2022-12-23T01:10:43.240Z,4.26
2022-12-23T01:13:13.105Z,3.96
2022-12-23T01:15:44.741Z,4.10
2022-12-23T01:18:14.787Z,4.11
2022-12-23T01:20:45.262Z,4.06
2022-12-23T01:23:14.991Z,3.98
2022-12-23T01:25:44.961Z,4.11
2022-12-23T01:28:15.797Z,3.81
2022-12-23T01:30:47.563Z,3.77
2022-12-23T01:33:17.885Z,3.46
2022-12-23T01:35:47.801Z,3.48
2022-12-23T01:38:18.011Z,3.49
2022-12-23T01:40:47.806Z,4.16
2022-12-23T01:43:17.589Z,4.46
2022-12-23T01:45:49.667Z,3.98
2022-12-23T01:48:23.242Z,3.79
2022-12-23T01:50:57.168Z,3.98
2022-12-23T01:53:28.620Z,4.01
2022-12-23T01:56:01.199Z,4.23
2022-12-23T01:58:34.636Z,3.45
2022-12-23T02:01:24.268Z,3.96
2022-12-23T02:03:57.234Z,4.31
2022-12-23T02:06:47.551Z,3.73
2022-12-23T02:09:20.034Z,3.86
2022-12-23T02:12:21.796Z,3.41
2022-12-23T02:15:22.076Z,3.93
2022-12-23T02:18:07.911Z,3.87
2022-12-23T02:21:13.727Z,4.05
2022-12-23T02:24:35.730Z,3.59
2022-12-23T02:27:14.725Z,3.60
2022-12-23T02:30:22.591Z,3.64
2022-12-23T02:33:05.221Z,3.37
2022-12-23T02:35:44.085Z,3.63
2022-12-23T02:38:18.237Z,3.36
2022-12-23T02:40:56.029Z,3.20
2022-12-23T02:43:31.961Z,3.99
2022-12-23T02:46:05.361Z,4.10
2022-12-23T02:48:40.735Z,3.66
2022-12-23T02:51:49.679Z,3.71
2022-12-23T02:54:23.143Z,3.78
2022-12-23T02:56:55.591Z,3.89
2022-12-23T02:59:28.183Z,3.73
2022-12-23T03:01:58.958Z,3.60
2022-12-23T03:04:30.519Z,3.07
2022-12-23T03:07:07.181Z,3.57
2022-12-23T03:09:46.174Z,3.48
2022-12-23T03:12:25.418Z,4.00
2022-12-23T03:15:12.493Z,3.85
2022-12-23T03:17:53.920Z,4.22
2022-12-23T03:20:29.354Z,3.38
2022-12-23T03:23:03.922Z,3.64
2022-12-23T03:25:36.216Z,4.19
2022-12-23T03:28:11.665Z,3.73
2022-12-23T03:30:44.975Z,3.90
2022-12-23T03:33:18.254Z,4.04
2022-12-23T03:35:52.875Z,3.99
2022-12-23T03:38:25.138Z,3.60
2022-12-23T03:41:00.123Z,3.85
2022-12-23T03:43:32.425Z,4.12
2022-12-23T03:46:07.234Z,4.15
2022-12-23T03:48:41.005Z,4.01
2022-12-23T03:51:14.719Z,4.24
2022-12-23T03:53:49.111Z,3.45
2022-12-23T03:56:24.090Z,3.48
2022-12-23T03:58:57.935Z,3.69
2022-12-23T04:01:34.273Z,4.34
2022-12-23T04:04:07.738Z,4.33
2022-12-23T04:06:44.055Z,4.03
2022-12-23T04:09:21.584Z,4.11
2022-12-23T04:11:53.423Z,3.88
2022-12-23T04:14:25.003Z,3.68
2022-12-23T04:16:58.768Z,3.78
2022-12-23T04:19:29.286Z,4.02
2022-12-23T04:22:01.215Z,4.38
2022-12-23T04:24:31.494Z,3.78
2022-12-23T04:27:01.799Z,3.64
2022-12-23T04:29:31.533Z,3.40
2022-12-23T04:32:01.484Z,3.83
2022-12-23T04:34:31.833Z,3.78
2022-12-23T04:37:03.880Z,3.54
2022-12-23T04:39:34.134Z,3.87
2022-12-23T04:42:04.070Z,3.95
2022-12-23T04:44:34.929Z,3.50
2022-12-23T04:47:04.871Z,3.76
2022-12-23T04:49:35.417Z,3.82
2022-12-23T04:52:07.064Z,3.16
2022-12-23T04:54:40.607Z,2.98
2022-12-23T04:57:16.821Z,3.04
2022-12-23T04:59:47.224Z,3.21
2022-12-23T05:02:17.114Z,3.53
2022-12-23T05:04:47.528Z,3.85
2022-12-23T05:07:19.113Z,3.97
2022-12-23T05:09:49.609Z,3.64
2022-12-23T05:12:19.924Z,4.22
2022-12-23T05:14:50.712Z,3.99
2022-12-23T05:17:20.574Z,4.10
2022-12-23T05:19:51.464Z,4.32
2022-12-23T05:22:22.925Z,4.16
2022-12-23T05:24:52.881Z,4.34
2022-12-23T05:27:23.049Z,4.18
2022-12-23T05:29:53.071Z,3.78
2022-12-23T05:32:23.385Z,3.99
2022-12-23T05:34:53.465Z,4.13
2022-12-23T05:37:24.791Z,4.10
2022-12-23T05:39:54.793Z,4.43
2022-12-23T05:42:25.496Z,4.15
2022-12-23T05:44:55.758Z,4.10
2022-12-23T05:47:25.784Z,4.50
2022-12-23T05:49:55.422Z,4.19
2022-12-23T05:52:26.696Z,3.65
2022-12-23T05:54:56.961Z,3.52
2022-12-23T05:57:26.956Z,4.26
2022-12-23T05:59:57.005Z,4.22
2022-12-23T06:02:27.473Z,4.19
2022-12-23T06:04:57.855Z,4.23
2022-12-23T06:07:29.070Z,3.91
2022-12-23T06:09:59.394Z,3.76
2022-12-23T06:12:30.374Z,4.26
2022-12-23T06:15:03.014Z,4.22
2022-12-23T06:17:34.029Z,4.02
2022-12-23T06:20:03.920Z,3.78
2022-12-23T06:22:36.650Z,3.84
2022-12-23T06:25:07.148Z,3.89
2022-12-23T06:27:37.124Z,4.19
2022-12-23T06:30:08.294Z,4.10
2022-12-23T06:32:39.068Z,4.20
2022-12-23T06:35:10.575Z,4.14
2022-12-23T06:37:42.600Z,4.30
2022-12-23T06:40:14.694Z,3.97
2022-12-23T06:42:45.384Z,4.09
2022-12-23T06:45:16.018Z,4.13
2022-12-23T06:47:47.756Z,4.11
2022-12-23T06:50:17.882Z,4.39
2022-12-23T06:52:50.798Z,4.23
2022-12-23T06:55:20.518Z,4.29
2022-12-23T06:57:50.917Z,4.38
2022-12-23T07:00:21.869Z,4.73
2022-12-23T07:02:51.801Z,4.46
2022-12-23T07:05:23.148Z,4.69
2022-12-23T07:07:55.049Z,4.01
2022-12-23T07:10:25.080Z,4.37
2022-12-23T07:12:54.984Z,4.21
2022-12-23T07:15:24.926Z,4.25
2022-12-23T07:17:56.154Z,4.32
2022-12-23T07:20:26.277Z,4.43
2022-12-23T07:22:58.860Z,4.50
2022-12-23T07:25:28.698Z,3.93
2022-12-23T07:27:59.015Z,4.13
2022-12-23T07:30:29.342Z,4.22
2022-12-23T07:32:58.630Z,4.37
2022-12-23T07:35:28.612Z,4.26
2022-12-23T07:37:59.757Z,4.16
2022-12-23T07:40:30.035Z,4.01
2022-12-23T07:43:01.006Z,4.36
2022-12-23T07:45:31.261Z,4.19
2022-12-23T07:48:04.271Z,4.12
2022-12-23T07:50:34.137Z,4.21
2022-12-23T07:53:05.149Z,3.70
2022-12-23T07:55:35.096Z,4.14
2022-12-23T07:58:05.741Z,4.24
2022-12-23T08:00:35.638Z,4.31
2022-12-23T08:03:06.189Z,3.94
2022-12-23T08:05:35.984Z,4.38
2022-12-23T08:08:07.528Z,4.41
2022-12-23T08:10:40.297Z,4.44
2022-12-23T08:13:14.602Z,4.51
2022-12-23T08:15:44.693Z,4.17
2022-12-23T08:18:15.242Z,4.40
2022-12-23T08:20:44.996Z,4.79
2022-12-23T08:23:20.009Z,4.70
2022-12-23T08:26:01.763Z,4.79
2022-12-23T08:28:32.615Z,4.75
2022-12-23T08:31:11.322Z,4.68
2022-12-23T08:33:45.135Z,4.87
2022-12-23T08:36:22.810Z,5.10
2022-12-23T08:38:56.899Z,4.89
2022-12-23T08:41:29.070Z,4.98
2022-12-23T08:43:59.033Z,4.93
2022-12-23T08:46:29.771Z,4.97
2022-12-23T08:48:59.937Z,5.00
2022-12-23T08:51:30.723Z,4.98
2022-12-23T08:54:02.879Z,5.16
2022-12-23T08:56:36.393Z,5.31
2022-12-23T08:59:07.294Z,5.12
2022-12-23T09:01:37.645Z,4.79
2022-12-23T09:04:08.481Z,5.42
2022-12-23T09:06:41.835Z,5.45
2022-12-23T09:09:15.528Z,5.69
2022-12-23T09:11:45.315Z,5.67
2022-12-23T09:14:15.600Z,5.62
2022-12-23T09:16:45.628Z,5.69
2022-12-23T09:19:15.524Z,5.71
2022-12-23T09:21:45.460Z,5.76
2022-12-23T09:24:17.620Z,5.84
2022-12-23T09:26:47.742Z,5.70
2022-12-23T09:29:17.983Z,5.51
2022-12-23T09:31:48.202Z,5.68
2022-12-23T09:34:17.782Z,5.63
2022-12-23T09:36:53.393Z,5.75
2022-12-23T09:39:28.232Z,6.00
2022-12-23T09:42:05.284Z,6.10
2022-12-23T09:44:45.152Z,6.25
2022-12-23T09:47:19.546Z,6.30
2022-12-23T09:49:52.813Z,5.98
2022-12-23T09:52:27.094Z,6.03
2022-12-23T09:54:58.447Z,5.60
2022-12-23T09:57:35.873Z,5.86
2022-12-23T10:00:13.115Z,6.13
2022-12-23T10:02:51.998Z,5.96
2022-12-23T10:05:32.718Z,6.09
2022-12-23T10:08:06.089Z,6.29
2022-12-23T10:10:40.592Z,6.35
2022-12-23T10:13:18.239Z,6.46
2022-12-23T10:15:50.548Z,6.58
2022-12-23T10:18:25.216Z,6.59
2022-12-23T10:20:58.771Z,6.38
2022-12-23T10:23:32.233Z,6.60
2022-12-23T10:26:06.289Z,6.78
2022-12-23T10:28:36.155Z,6.60
2022-12-23T10:34:02.802Z,6.85
2022-12-23T10:36:42.276Z,6.84
2022-12-23T10:39:19.361Z,7.07
2022-12-23T10:42:01.320Z,7.46
2022-12-23T10:44:56.228Z,7.35
2022-12-23T10:47:33.206Z,7.31
2022-12-23T10:50:15.598Z,7.37
2022-12-23T10:52:46.925Z,7.39
2022-12-23T10:55:28.548Z,7.36
2022-12-23T10:58:09.176Z,7.42
2022-12-23T11:00:41.737Z,7.28
2022-12-23T11:03:18.972Z,7.41
2022-12-23T11:05:50.876Z,7.54
2022-12-23T11:08:22.091Z,7.62
2022-12-23T11:10:52.362Z,7.77
2022-12-23T11:13:37.330Z,7.90
2022-12-23T11:16:23.536Z,7.82
2022-12-23T11:19:06.230Z,8.01
2022-12-23T11:21:36.669Z,8.24
2022-12-23T11:24:19.425Z,8.32
2022-12-23T11:26:53.071Z,8.37
2022-12-23T11:29:26.842Z,8.57
2022-12-23T11:31:57.391Z,8.51
2022-12-23T11:34:28.565Z,8.48
2022-12-23T11:37:03.585Z,9.09
2022-12-23T11:39:37.913Z,8.84
2022-12-23T11:42:13.356Z,8.93
2022-12-23T11:44:47.776Z,8.75
2022-12-23T11:47:29.374Z,8.73
2022-12-23T11:50:05.836Z,8.81
2022-12-23T11:52:37.280Z,9.00
2022-12-23T11:55:09.279Z,8.96
2022-12-23T11:57:42.647Z,9.05
2022-12-23T12:00:22.578Z,8.85
2022-12-23T12:02:55.287Z,9.22
2022-12-23T12:05:35.705Z,9.42
2022-12-23T12:08:08.964Z,9.55
2022-12-23T12:10:41.914Z,9.75
2022-12-23T12:13:25.998Z,9.40
2022-12-23T12:16:10.424Z,9.34
2022-12-23T12:18:42.051Z,9.79
2022-12-23T12:21:16.239Z,9.99
2022-12-23T12:23:48.923Z,9.60
2022-12-23T12:26:25.661Z,9.49
2022-12-23T12:29:00.734Z,9.55
2022-12-23T12:31:35.750Z,9.71
2022-12-23T12:34:08.629Z,9.87
2022-12-23T12:36:43.542Z,9.81
2022-12-23T12:39:20.030Z,9.86
2022-12-23T12:41:53.519Z,9.77
2022-12-23T12:44:30.303Z,9.73
2022-12-23T12:47:28.132Z,9.79
2022-12-23T12:50:02.395Z,9.78
2022-12-23T12:52:35.585Z,9.98
2022-12-23T12:55:09.009Z,10.06
2022-12-23T12:57:39.533Z,9.85
2022-12-23T13:00:17.193Z,10.03
2022-12-23T13:03:08.120Z,10.28
2022-12-23T13:05:54.949Z,9.83
2022-12-23T13:08:55.810Z,9.79
2022-12-23T13:11:31.894Z,9.88
2022-12-23T13:14:07.629Z,9.74
2022-12-23T13:16:45.814Z,9.76
2022-12-23T13:19:25.821Z,9.76
2022-12-23T13:22:02.338Z,9.63
2022-12-23T13:24:37.822Z,9.71
2022-12-23T13:27:13.013Z,9.50
2022-12-23T13:30:02.862Z,9.47
2022-12-23T13:33:14.953Z,9.59
2022-12-23T13:36:02.959Z,9.75
2022-12-23T13:38:52.351Z,9.77
2022-12-23T13:41:28.882Z,9.43
2022-12-23T13:44:01.198Z,9.44
2022-12-23T13:46:47.770Z,9.35
2022-12-23T13:49:27.130Z,9.59
2022-12-23T13:52:06.275Z,10.03
2022-12-23T13:54:45.528Z,10.03
2022-12-23T13:57:26.578Z,10.05
2022-12-23T14:00:05.950Z,10.00
2022-12-23T14:02:54.349Z,9.92
2022-12-23T14:05:36.628Z,9.99
2022-12-23T14:08:21.782Z,9.82
2022-12-23T14:10:55.583Z,9.89
2022-12-23T14:13:28.853Z,9.72
2022-12-23T14:16:15.638Z,9.57
2022-12-23T14:19:08.513Z,9.43
2022-12-23T14:21:49.141Z,9.47
2022-12-23T14:24:46.575Z,9.31
2022-12-23T14:27:32.961Z,9.19
2022-12-23T14:30:12.330Z,9.20
2022-12-23T14:32:49.623Z,9.15
2022-12-23T14:35:25.005Z,9.16
2022-12-23T14:38:12.991Z,9.14
2022-12-23T14:41:13.776Z,9.13
2022-12-23T14:44:00.078Z,9.10
2022-12-23T14:46:59.897Z,8.98
2022-12-23T14:49:44.842Z,8.92
2022-12-23T14:52:53.019Z,8.80
2022-12-23T14:55:45.272Z,8.95
2022-12-23T14:58:54.138Z,8.83
2022-12-23T15:01:30.693Z,8.63
2022-12-23T15:04:02.112Z,8.58
2022-12-23T15:06:36.784Z,8.40
2022-12-23T15:09:08.699Z,8.27
2022-12-23T15:11:39.028Z,8.30
2022-12-23T15:14:12.763Z,8.15
2022-12-23T15:16:46.981Z,8.09
2022-12-23T15:19:22.350Z,8.09
2022-12-23T15:22:03.212Z,8.19
2022-12-23T15:24:37.875Z,8.14
2022-12-23T15:27:26.654Z,8.03
2022-12-23T15:29:58.485Z,8.07
2022-12-23T15:32:30.393Z,8.07
2022-12-23T15:35:05.232Z,7.90
2022-12-23T15:37:36.428Z,7.97
2022-12-23T15:40:13.194Z,7.80
2022-12-23T15:42:50.460Z,7.90
2022-12-23T15:45:44.273Z,7.72
2022-12-23T15:48:27.663Z,7.72
2022-12-23T15:50:59.439Z,7.78
2022-12-23T15:53:32.608Z,7.69
2022-12-23T15:56:06.389Z,7.71
2022-12-23T15:58:37.999Z,7.67
2022-12-23T16:01:08.628Z,7.45
2022-12-23T16:03:42.082Z,7.51
2022-12-23T16:06:19.827Z,7.62
2022-12-23T16:08:58.630Z,7.49
2022-12-23T16:11:44.191Z,7.59
2022-12-23T16:14:33.575Z,7.64
2022-12-23T16:17:03.772Z,7.61
2022-12-23T16:19:42.994Z,7.58
2022-12-23T16:22:28.336Z,7.63
2022-12-23T16:25:08.351Z,7.53
2022-12-23T16:27:41.144Z,7.57
2022-12-23T16:30:16.607Z,7.52
2022-12-23T16:32:52.817Z,7.40
2022-12-23T16:35:33.817Z,7.62
2022-12-23T16:38:18.625Z,7.71
2022-12-23T16:40:51.182Z,7.84
2022-12-23T16:43:22.508Z,7.88
2022-12-23T16:45:54.673Z,7.73
2022-12-23T16:48:30.341Z,7.70
2022-12-23T16:51:02.924Z,7.75
2022-12-23T16:53:33.035Z,7.64
2022-12-23T16:56:03.114Z,7.71
2022-12-23T16:58:33.053Z,7.67
2022-12-23T17:01:03.924Z,7.75
2022-12-23T17:03:34.644Z,7.85
2022-12-23T17:06:06.376Z,7.87
2022-12-23T17:08:36.051Z,7.81
2022-12-23T17:11:06.486Z,7.75
2022-12-23T17:13:36.674Z,7.82
2022-12-23T17:16:07.749Z,7.82
2022-12-23T17:18:37.859Z,7.81
2022-12-23T17:21:12.588Z,7.72
2022-12-23T17:23:43.479Z,7.70
2022-12-23T17:26:14.560Z,7.75
2022-12-23T17:28:45.107Z,7.66
2022-12-23T17:31:19.389Z,7.48
2022-12-23T17:33:53.983Z,7.71
2022-12-23T17:36:26.181Z,7.72
2022-12-23T17:38:56.476Z,7.67
2022-12-23T17:41:31.748Z,7.62
2022-12-23T17:44:03.218Z,7.62
2022-12-23T17:46:34.010Z,7.70
2022-12-23T17:49:03.940Z,7.55
2022-12-23T17:51:36.220Z,7.66
2022-12-23T17:54:08.344Z,7.58
2022-12-23T17:56:38.588Z,7.72
2022-12-23T17:59:08.683Z,7.68
2022-12-23T18:01:39.590Z,7.58
2022-12-23T18:04:10.171Z,7.52
2022-12-23T18:06:42.693Z,7.42
2022-12-23T18:09:12.662Z,7.67
2022-12-23T18:11:44.936Z,7.76
2022-12-23T18:14:18.603Z,7.66
2022-12-23T18:16:48.450Z,7.42
2022-12-23T18:19:20.358Z,7.73
2022-12-23T18:21:52.315Z,7.61
2022-12-23T18:24:23.882Z,7.67
2022-12-23T18:26:54.606Z,7.68
2022-12-23T18:29:24.573Z,7.72
2022-12-23T18:31:54.862Z,7.56
2022-12-23T18:34:25.390Z,7.62
2022-12-23T18:36:56.416Z,7.78
2022-12-23T18:39:26.234Z,7.66
2022-12-23T18:41:56.697Z,7.82
2022-12-23T18:44:27.426Z,7.81
2022-12-23T18:46:57.727Z,7.86
2022-12-23T18:49:27.580Z,7.99
2022-12-23T18:51:59.466Z,8.00
2022-12-23T18:54:29.489Z,7.88
2022-12-23T18:57:02.641Z,7.89
2022-12-23T18:59:35.090Z,7.76
2022-12-23T19:02:06.733Z,7.89
2022-12-23T19:04:37.286Z,7.88
2022-12-23T19:07:10.872Z,7.92
2022-12-23T19:09:41.789Z,7.87
2022-12-23T19:12:12.188Z,7.89
2022-12-23T19:14:42.958Z,7.82
2022-12-23T19:17:13.007Z,7.94
2022-12-23T19:19:43.196Z,7.91
2022-12-23T19:22:19.451Z,7.88
2022-12-23T19:25:04.708Z,7.63
2022-12-23T19:27:35.989Z,7.74
2022-12-23T19:30:07.596Z,7.84
2022-12-23T19:32:37.268Z,7.76
2022-12-23T19:35:08.847Z,7.78
2022-12-23T19:37:40.149Z,7.70
2022-12-23T19:40:11.840Z,7.69
2022-12-23T19:42:43.144Z,7.78
2022-12-23T19:45:13.341Z,7.76
2022-12-23T19:47:43.386Z,7.87
2022-12-23T19:50:14.305Z,7.78
2022-12-23T19:52:46.439Z,7.50
2022-12-23T19:55:16.648Z,7.37
2022-12-23T19:57:46.544Z,7.55
2022-12-23T20:00:17.263Z,7.53
2022-12-23T20:02:51.422Z,7.54
2022-12-23T20:05:25.818Z,7.65
2022-12-23T20:07:57.979Z,7.45
2022-12-23T20:10:27.964Z,7.42
2022-12-23T20:12:58.615Z,7.45
2022-12-23T20:15:29.089Z,7.45
2022-12-23T20:18:00.311Z,7.69
2022-12-23T20:20:30.529Z,7.56
2022-12-23T20:23:02.716Z,7.43
2022-12-23T20:25:32.917Z,7.34
2022-12-23T20:28:02.584Z,7.24
2022-12-23T20:30:32.554Z,7.29
2022-12-23T20:33:02.810Z,7.30
2022-12-23T20:35:33.806Z,7.35
2022-12-23T20:38:05.869Z,7.26
2022-12-23T20:40:35.953Z,7.36
2022-12-23T20:43:09.137Z,7.30
2022-12-23T20:45:44.401Z,7.32
2022-12-23T20:48:14.764Z,7.57
2022-12-23T20:50:45.787Z,7.54
2022-12-23T20:53:17.694Z,7.56
2022-12-23T20:55:48.214Z,7.61
2022-12-23T20:58:35.646Z,7.22
2022-12-23T21:01:12.908Z,7.30
2022-12-23T21:03:43.525Z,7.58
2022-12-23T21:06:13.859Z,7.59
2022-12-23T21:08:45.712Z,7.33
2022-12-23T21:11:16.132Z,7.38
2022-12-23T21:13:48.376Z,7.13
2022-12-23T21:16:18.764Z,7.41
2022-12-23T21:18:53.289Z,7.40
2022-12-23T21:21:26.910Z,7.43
2022-12-23T21:24:02.408Z,7.36
2022-12-23T21:26:34.207Z,7.28
2022-12-23T21:29:06.531Z,7.14
2022-12-23T21:31:38.277Z,7.47
2022-12-23T21:34:09.998Z,7.15
2022-12-23T21:36:42.265Z,7.33
2022-12-23T21:39:16.823Z,7.29
2022-12-23T21:41:46.486Z,7.25
2022-12-23T21:44:16.614Z,7.33
2022-12-23T21:46:46.648Z,7.29
2022-12-23T21:49:17.072Z,7.33
2022-12-23T21:51:47.194Z,7.33
2022-12-23T21:54:19.367Z,7.19
2022-12-23T21:56:49.847Z,7.29
2022-12-23T21:59:19.916Z,7.06
2022-12-23T22:01:51.058Z,7.18
2022-12-23T22:04:21.474Z,7.06
2022-12-23T22:06:51.790Z,7.00
2022-12-23T22:09:22.924Z,7.05
2022-12-23T22:11:52.389Z,7.16
2022-12-23T22:14:22.659Z,7.27
2022-12-23T22:16:52.750Z,7.20
2022-12-23T22:19:22.822Z,7.03
2022-12-23T22:21:53.548Z,7.24
2022-12-23T22:24:25.344Z,7.10
2022-12-23T22:26:55.642Z,7.03
2022-12-23T22:29:25.818Z,7.03
2022-12-23T22:31:56.031Z,6.99
2022-12-23T22:34:26.268Z,7.06
2022-12-23T22:36:56.373Z,7.20
2022-12-23T22:39:27.969Z,6.92
2022-12-23T22:41:58.508Z,6.95
2022-12-23T22:44:28.596Z,6.92
2022-12-23T22:46:58.805Z,6.92
2022-12-23T22:49:29.637Z,7.09
2022-12-23T22:52:00.121Z,7.06
2022-12-23T22:54:32.997Z,7.08
2022-12-23T22:57:03.529Z,6.97
2022-12-23T22:59:33.942Z,6.89
2022-12-23T23:02:03.679Z,6.76
2022-12-23T23:04:36.116Z,7.03
2022-12-23T23:07:08.326Z,7.02
2022-12-23T23:09:40.574Z,6.92
2022-12-23T23:12:10.768Z,7.01
2022-12-23T23:14:53.986Z,7.02
2022-12-23T23:17:26.395Z,6.75
2022-12-23T23:19:57.320Z,6.74
2022-12-23T23:22:27.308Z,6.97
2022-12-23T23:24:58.819Z,6.95
2022-12-23T23:27:28.507Z,6.87
2022-12-23T23:29:58.432Z,6.89
2022-12-23T23:32:28.458Z,6.82
2022-12-23T23:34:58.769Z,6.81
2022-12-23T23:37:28.829Z,6.93
2022-12-23T23:40:00.261Z,6.90
2022-12-23T23:42:30.394Z,6.31
2022-12-23T23:45:00.455Z,6.71
2022-12-23T23:47:34.952Z,6.69
2022-12-23T23:50:05.718Z,6.69
2022-12-23T23:52:36.378Z,6.78
2022-12-23T23:55:09.869Z,6.65
2022-12-23T23:57:39.848Z,6.56
